Time;durP1;ratioP1;P1;durP2;ratioP2;P2;SDS_P1;SDS_P2;PMS_P1;PMS_P2;Temp;Humidity;BMP_temperature;BMP_pressure;BME280_temperature;BME280_humidity;BME280_pressure;Samples;Min_cycle;Max_cycle;Signal;HPM_P1;HPM_P2
2021/03/05 00:01:34;;;;;;;23.38;17.08;;;4.40;85.90;5.60;100844.00;;;;5027881;28;20912;-77
2021/03/05 00:04:01;;;;;;;23.87;17.77;;;4.40;85.20;5.60;67495.00;;;;5026448;28;20431;-76
2021/03/05 00:06:28;;;;;;;27.23;18.00;;;4.50;86.20;5.60;100831.00;;;;5023115;28;20442;-76
2021/03/05 00:08:57;;;;;;;23.73;17.58;;;4.50;85.90;217.30;159070.00;;;;5023968;27;20523;-76
2021/03/05 00:11:24;;;;;;;21.13;17.10;;;4.50;84.80;5.50;100843.00;;;;5028574;28;20454;-75
2021/03/05 00:13:51;;;;;;;21.45;15.75;;;4.40;84.60;5.40;67453.00;;;;5042285;28;20430;-77
2021/03/05 00:16:18;;;;;;;23.33;17.00;;;4.40;84.70;5.40;100859.00;;;;5036509;28;20550;-76
2021/03/05 00:18:46;;;;;;;24.48;16.73;;;4.40;84.90;5.40;100853.00;;;;5042084;27;20423;-76
2021/03/05 00:21:13;;;;;;;21.77;15.73;;;4.40;85.00;5.50;100857.00;;;;5053784;28;20455;-77
2021/03/05 00:23:41;;;;;;;18.92;14.85;;;4.40;84.70;5.50;100850.00;;;;5040468;28;20419;-77
2021/03/05 00:26:09;;;;;;;20.67;15.40;;;4.40;84.10;5.40;100865.00;;;;5037895;27;20431;-77
2021/03/05 00:28:36;;;;;;;20.15;15.07;;;4.50;83.70;5.50;100860.00;;;;5024151;28;20420;-76
2021/03/05 00:31:04;;;;;;;20.05;15.20;;;4.40;83.60;5.50;100861.00;;;;5022630;27;20446;-76
2021/03/05 00:33:31;;;;;;;21.20;15.80;;;4.40;83.40;5.60;100870.00;;;;5022148;28;20427;-76
2021/03/05 00:35:58;;;;;;;20.03;15.53;;;4.50;84.40;5.60;100877.00;;;;5022134;28;21010;-76
2021/03/05 00:38:27;;;;;;;20.17;15.15;;;4.50;83.70;5.70;100883.00;;;;5018628;28;20415;-75
2021/03/05 00:40:55;;;;;;;20.95;15.50;;;4.50;84.10;5.80;100872.00;;;;5014854;28;20423;-76
2021/03/05 00:43:24;;;;;;;20.77;15.90;;;4.60;84.50;5.70;100881.00;;;;5021201;28;20427;-76
2021/03/05 00:45:52;;;;;;;21.10;15.80;;;4.60;83.50;5.80;100872.00;;;;5014770;28;20435;-76
2021/03/05 00:48:23;;;;;;;20.20;15.57;;;4.60;83.50;5.90;100889.00;;;;5020148;28;21457;-76
2021/03/05 00:50:51;;;;;;;20.65;14.88;;;4.60;83.10;6.00;100894.00;;;;5021011;28;20430;-76
2021/03/05 00:53:19;;;;;;;19.27;15.73;;;4.60;84.00;6.00;100889.00;;;;5017320;27;20437;-76
2021/03/05 00:55:46;;;;;;;19.90;15.68;;;4.70;83.40;6.00;100904.00;;;;5018622;28;20422;-77
2021/03/05 00:58:19;;;;;;;20.88;15.80;;;4.70;83.20;217.30;159304.00;;;;5014403;28;20437;-76
2021/03/05 01:00:47;;;;;;;20.77;15.88;;;4.80;83.30;6.20;100894.00;;;;5023415;28;20512;-76
2021/03/05 01:03:18;;;;;;;20.85;15.82;;;4.80;83.60;6.30;100887.00;;;;5031711;27;20411;-77
2021/03/05 01:05:45;;;;;;;21.97;16.23;;;4.90;84.10;6.40;100891.00;;;;5026509;27;21729;-77
2021/03/05 01:08:14;;;;;;;19.52;15.65;;;5.00;84.00;6.50;100895.00;;;;5029997;28;20489;-77
2021/03/05 01:10:47;;;;;;;22.13;16.75;;;5.10;83.50;6.50;100889.00;;;;5026505;27;20451;-78
2021/03/05 01:13:15;;;;;;;20.48;15.55;;;5.20;83.40;6.60;100899.00;;;;5025772;28;20991;-78
2021/03/05 01:15:42;;;;;;;21.25;15.60;;;5.10;83.20;6.60;100912.00;;;;5021771;28;20506;-78
2021/03/05 01:18:14;;;;;;;19.65;15.10;;;5.10;83.30;52.70;159453.00;;;;5021600;28;20419;-77
2021/03/05 01:20:43;;;;;;;20.02;16.17;;;5.00;82.10;6.40;100912.00;;;;5021710;28;20423;-78
2021/03/05 01:23:10;;;;;;;21.08;17.00;;;5.00;82.70;6.40;100900.00;;;;5019656;28;20773;-76
2021/03/05 01:25:37;;;;;;;19.75;15.02;;;5.00;83.40;6.30;100910.00;;;;5020686;28;20434;-77
2021/03/05 01:28:05;;;;;;;19.07;15.10;;;4.90;82.60;6.30;100901.00;;;;5019936;28;20424;-77
2021/03/05 01:30:32;;;;;;;17.73;14.90;;;4.90;82.70;6.20;100891.00;;;;5016818;27;20710;-77
2021/03/05 01:33:00;;;;;;;18.60;15.45;;;4.90;82.60;6.20;100897.00;;;;5021532;28;20419;-77
2021/03/05 01:35:30;;;;;;;18.63;15.82;;;4.80;83.30;6.20;67626.00;;;;5020072;28;20427;-77
2021/03/05 01:37:57;;;;;;;17.95;15.43;;;4.80;83.30;6.20;100909.00;;;;5037230;28;20427;-77
2021/03/05 01:40:29;;;;;;;18.35;15.40;;;4.80;83.30;6.20;100894.00;;;;5016829;28;20438;-77
2021/03/05 01:42:56;;;;;;;16.27;14.20;;;4.90;83.30;6.20;100892.00;;;;5020714;28;20452;-78
2021/03/05 01:45:27;;;;;;;19.07;15.03;;;4.80;82.70;6.10;100901.00;;;;5022773;27;20431;-77
2021/03/05 01:47:58;;;;;;;19.88;16.77;;;5.00;83.20;6.20;100911.00;;;;5020803;27;20623;-78
2021/03/05 01:50:31;;;;;;;20.42;16.25;;;4.80;83.30;6.30;100902.00;;;;5021623;28;20462;-79
2021/03/05 01:53:01;;;;;;;18.20;14.97;;;4.90;84.00;6.30;100915.00;;;;5020903;28;20423;-76
2021/03/05 01:55:28;;;;;;;18.70;14.80;;;4.90;83.80;52.70;159389.00;;;;5014570;28;20422;-77
2021/03/05 01:57:57;;;;;;;18.90;15.65;;;4.90;83.30;6.30;100906.00;;;;5022359;28;20432;-79
2021/03/05 02:00:30;;;;;;;19.40;15.63;;;4.90;83.30;6.30;100904.00;;;;5049655;28;20492;-81
2021/03/05 02:02:58;;;;;;;19.27;15.00;;;4.90;83.70;6.30;100900.00;;;;5044237;28;20496;-78
2021/03/05 02:05:25;;;;;;;18.73;14.70;;;4.90;83.30;6.30;100889.00;;;;5039721;28;20442;-79
2021/03/05 02:07:53;;;;;;;17.10;15.02;;;4.90;83.70;6.50;100890.00;;;;5033980;28;20462;-76
2021/03/05 02:10:21;;;;;;;18.70;15.38;;;5.00;84.30;6.50;100894.00;;;;5026442;27;20430;-77
2021/03/05 02:12:49;;;;;;;19.10;15.33;;;5.10;83.60;6.50;100900.00;;;;5019195;28;20514;-77
2021/03/05 02:15:16;;;;;;;19.23;16.17;;;5.00;84.00;6.50;100909.00;;;;5021916;28;20539;-77
2021/03/05 02:17:52;;;;;;;20.55;15.90;;;5.00;83.60;6.50;100903.00;;;;5019440;28;20427;-78
2021/03/05 02:20:30;;;;;;;17.73;14.90;;;5.00;83.50;6.30;100889.00;;;;5020502;28;20453;-77
2021/03/05 02:23:41;;;;;;;20.38;15.30;;;4.90;82.00;6.30;100895.00;;;;5019544;28;20819;-78
2021/03/05 02:27:05;;;;;;;20.30;16.10;;;4.90;83.30;6.40;100907.00;;;;5018607;28;20434;-78
2021/03/05 02:30:28;;;;;;;19.98;15.65;;;4.90;83.30;6.40;100896.00;;;;5029323;28;20403;-78
2021/03/05 02:33:02;;;;;;;19.80;16.45;;;5.00;83.40;6.40;67674.00;;;;5021006;28;20961;-77
2021/03/05 02:35:33;;;;;;;20.17;16.88;;;4.90;83.10;6.50;100905.00;;;;5019429;28;21002;-77
2021/03/05 02:38:04;;;;;;;19.75;15.43;;;5.00;83.40;6.50;100901.00;;;;5032223;28;20538;-80
2021/03/05 02:40:37;;;;;;;20.05;16.00;;;5.00;83.40;217.30;159457.00;;;;5037588;28;20514;-78
2021/03/05 02:43:08;;;;;;;21.85;16.80;;;5.10;83.50;6.50;100909.00;;;;5027279;28;20454;-78
2021/03/05 02:45:40;;;;;;;19.37;16.27;;;5.00;83.10;6.50;100902.00;;;;5025952;28;20442;-78
2021/03/05 02:48:13;;;;;;;21.13;16.53;;;5.00;83.90;6.60;100916.00;;;;5024599;27;20846;-78
2021/03/05 02:50:44;;;;;;;19.27;15.82;;;5.10;83.50;6.60;100915.00;;;;5021044;28;20961;-78
2021/03/05 02:53:14;;;;;;;22.38;17.00;;;5.10;83.70;6.70;100903.00;;;;5024794;27;20430;-77
2021/03/05 02:55:43;;;;;;;23.15;17.02;;;5.10;84.10;6.60;100920.00;;;;5023829;28;20423;-77
2021/03/05 02:58:14;;;;;;;21.27;17.00;;;5.10;84.30;6.60;100921.00;;;;5027307;27;20419;-78
2021/03/05 03:00:42;;;;;;;21.15;16.55;;;5.10;84.20;6.60;100911.00;;;;5023808;28;20423;-78
2021/03/05 03:03:13;;;;;;;19.70;16.30;;;5.10;83.50;6.50;100915.00;;;;5027400;27;20423;-78
2021/03/05 03:05:42;;;;;;;23.65;17.83;;;5.00;82.70;6.40;100920.00;;;;5021641;28;20414;-78
2021/03/05 03:08:11;;;;;;;24.27;17.33;;;5.10;83.50;6.50;100909.00;;;;5025472;27;20471;-79
2021/03/05 03:10:39;;;;;;;22.27;17.75;;;5.00;83.30;6.50;100916.00;;;;5023356;28;20427;-78
2021/03/05 03:13:07;;;;;;;21.70;17.73;;;5.00;83.40;217.30;159443.00;;;;5025144;28;20411;-78
2021/03/05 03:15:35;;;;;;;23.10;17.30;;;5.00;83.40;217.30;159369.00;;;;5017422;28;21006;-78
2021/03/05 03:18:06;;;;;;;22.45;17.55;;;4.90;82.60;6.40;100935.00;;;;5026589;27;20423;-78
2021/03/05 03:20:36;;;;;;;20.17;16.67;;;4.90;83.30;6.30;100923.00;;;;5022008;28;20424;-79
2021/03/05 03:23:04;;;;;;;23.23;17.85;;;4.90;82.10;6.30;67648.00;;;;5028403;27;20469;-78
2021/03/05 03:25:33;;;;;;;21.88;15.88;;;4.90;82.20;6.20;100930.00;;;;5027447;28;20480;-78
2021/03/05 03:28:00;;;;;;;22.42;17.15;;;4.90;82.20;6.20;100926.00;;;;5019462;27;20437;-79
2021/03/05 03:30:28;;;;;;;25.73;18.58;;;4.80;83.10;6.20;100939.00;;;;5029625;27;20434;-78
2021/03/05 03:32:57;;;;;;;22.33;18.00;;;4.80;83.30;6.20;100954.00;;;;5044310;28;20478;-80
2021/03/05 03:35:25;;;;;;;21.05;17.27;;;4.80;83.30;6.30;100939.00;;;;5045512;27;20423;-79
2021/03/05 03:38:14;;;;;;;21.27;17.25;;;4.80;83.30;6.30;100954.00;;;;5047501;28;20447;-80
2021/03/05 03:40:44;;;;;;;21.85;17.70;;;4.80;82.80;6.20;100948.00;;;;5035945;28;20518;-79
2021/03/05 03:43:11;;;;;;;21.02;17.00;;;4.80;82.50;6.20;100944.00;;;;5033508;27;20445;-80
2021/03/05 03:45:40;;;;;;;20.83;16.95;;;4.80;81.80;6.20;100948.00;;;;5052634;28;20415;-81
2021/03/05 03:48:10;;;;;;;18.87;15.83;;;4.90;81.20;6.20;100954.00;;;;5055583;27;20423;-79
2021/03/05 03:50:44;;;;;;;20.90;15.93;;;4.80;81.30;6.10;100940.00;;;;5051255;27;20410;-79
2021/03/05 03:53:15;;;;;;;19.70;16.80;;;4.80;79.80;6.10;100950.00;;;;5046841;27;20498;-78
2021/03/05 03:55:46;;;;;;;19.20;15.07;;;4.80;80.10;6.20;100938.00;;;;5049128;27;20430;-78
2021/03/05 03:58:16;;;;;;;19.63;15.18;;;4.80;80.20;6.20;100933.00;;;;5047306;27;20429;-78
2021/03/05 04:00:46;;;;;;;20.63;15.00;;;4.80;80.30;6.20;100933.00;;;;5028406;28;20419;-78
2021/03/05 04:03:15;;;;;;;19.13;15.00;;;4.80;79.40;6.20;100952.00;;;;5028522;27;20464;-78
2021/03/05 04:05:45;;;;;;;17.67;13.77;;;4.80;79.30;6.00;100954.00;;;;5023963;27;20531;-79
2021/03/05 04:08:35;;;;;;;18.13;13.93;;;4.80;78.30;6.10;100953.00;;;;5041262;27;20431;-78
2021/03/05 04:11:03;;;;;;;19.08;14.70;;;4.80;79.80;6.20;100956.00;;;;5024116;28;20526;-78
2021/03/05 04:13:32;;;;;;;17.20;13.60;;;4.80;80.20;6.30;100971.00;;;;5022774;28;20565;-78
2021/03/05 04:16:00;;;;;;;18.30;14.10;;;4.80;80.00;6.20;100968.00;;;;5023740;27;20509;-79
2021/03/05 04:18:32;;;;;;;20.00;14.50;;;4.80;79.60;6.20;100968.00;;;;5022404;28;20459;-79
2021/03/05 04:21:05;;;;;;;17.40;13.48;;;4.80;78.40;6.10;100987.00;;;;5024702;28;20415;-78
2021/03/05 04:23:35;;;;;;;19.73;13.97;;;4.80;78.60;6.10;100979.00;;;;5018933;28;20500;-78
2021/03/05 04:26:02;;;;;;;18.67;14.60;;;4.80;79.30;6.00;67587.00;;;;5024442;27;20423;-78
2021/03/05 04:28:30;;;;;;;19.88;14.48;;;4.70;79.10;6.00;100984.00;;;;5015065;28;20415;-78
2021/03/05 04:30:58;;;;;;;20.38;15.30;;;4.70;79.20;6.00;100976.00;;;;5022825;27;20523;-79
2021/03/05 04:33:25;;;;;;;19.17;14.52;;;4.70;79.90;6.10;100994.00;;;;5023493;27;20465;-79
2021/03/05 04:35:53;;;;;;;19.83;15.63;;;4.70;79.80;6.10;100982.00;;;;5023865;28;20423;-78
2021/03/05 04:38:20;;;;;;;20.77;15.88;;;4.70;79.80;6.10;101007.00;;;;5022058;28;20418;-78
2021/03/05 04:40:49;;;;;;;20.23;16.40;;;4.70;81.00;6.20;100999.00;;;;5019092;27;20434;-78
2021/03/05 04:43:16;;;;;;;22.38;16.35;;;4.70;81.10;6.20;101011.00;;;;5021871;28;20435;-79
2021/03/05 04:45:43;;;;;;;21.38;16.35;;;4.70;81.10;6.20;101011.00;;;;5021665;28;20447;-78
2021/03/05 04:48:11;;;;;;;18.98;14.95;;;4.70;80.80;6.10;101018.00;;;;5019689;27;20427;-78
2021/03/05 04:50:39;;;;;;;20.77;16.17;;;4.70;80.30;6.10;101003.00;;;;5023498;28;20462;-79
2021/03/05 04:53:06;;;;;;;21.80;15.93;;;4.70;80.60;6.10;101027.00;;;;5014466;28;20522;-78
2021/03/05 04:55:34;;;;;;;19.95;15.60;;;4.70;81.40;6.00;101016.00;;;;5021634;28;20430;-78
2021/03/05 04:58:03;;;;;;;20.40;15.40;;;4.60;80.40;5.90;101023.00;;;;5021048;28;20433;-78
2021/03/05 05:00:31;;;;;;;21.92;16.10;;;4.60;79.90;5.90;101032.00;;;;5022484;27;20435;-78
2021/03/05 05:02:58;;;;;;;20.73;15.57;;;4.60;80.70;5.90;101019.00;;;;5019647;28;20431;-79
2021/03/05 05:05:27;;;;;;;20.00;14.67;;;4.60;80.40;5.90;101019.00;;;;5035330;27;20466;-79
2021/03/05 05:07:56;;;;;;;20.88;15.50;;;4.60;80.10;5.90;101025.00;;;;5035314;28;20491;-79
2021/03/05 05:10:24;;;;;;;16.70;13.10;;;4.60;80.00;5.80;101024.00;;;;5038367;27;20424;-79
2021/03/05 05:12:52;;;;;;;17.42;13.68;;;4.50;78.60;5.70;101040.00;;;;5030570;27;20452;-78
2021/03/05 05:15:20;;;;;;;19.87;14.50;;;4.50;78.20;5.70;101044.00;;;;5024894;28;21141;-79
2021/03/05 05:17:48;;;;;;;18.02;13.80;;;4.50;78.60;5.80;101046.00;;;;5021754;28;20936;-79
2021/03/05 05:20:15;;;;;;;15.75;13.20;;;4.50;78.70;5.70;101051.00;;;;5027534;27;20433;-78
2021/03/05 05:22:43;;;;;;;20.20;14.75;;;4.50;77.90;5.70;101043.00;;;;5026032;27;20456;-79
2021/03/05 05:25:11;;;;;;;18.67;13.88;;;4.40;79.00;5.70;101051.00;;;;5022188;28;20788;-79
2021/03/05 05:27:39;;;;;;;19.33;12.90;;;4.50;78.20;217.30;159092.00;;;;5022026;27;20434;-78
2021/03/05 05:30:08;;;;;;;17.30;13.73;;;4.40;77.90;5.50;101030.00;;;;5026059;28;20534;-79
2021/03/05 05:32:36;;;;;;;18.60;12.70;;;4.40;77.60;217.30;159044.00;;;;5024816;27;20435;-78
2021/03/05 05:35:05;;;;;;;21.17;13.63;;;4.30;78.30;5.60;101046.00;;;;5025644;28;20447;-77
2021/03/05 05:37:35;;;;;;;21.23;14.40;;;4.30;78.30;5.60;101045.00;;;;5022654;28;20743;-78
2021/03/05 05:40:03;;;;;;;20.23;12.95;;;4.30;79.60;5.60;101032.00;;;;5044359;27;20461;-79
2021/03/05 05:42:31;;;;;;;15.65;11.80;;;4.40;78.40;5.50;101017.00;;;;5048956;28;20488;-79
2021/03/05 05:44:58;;;;;;;15.93;11.23;;;4.30;77.10;5.50;101041.00;;;;5031425;28;20435;-79
2021/03/05 05:47:30;;;;;;;19.95;14.07;;;4.40;75.80;5.40;101038.00;;;;5017081;28;20463;-79
2021/03/05 05:50:04;;;;;;;19.10;13.40;;;4.30;77.00;5.50;101044.00;;;;5041246;28;20428;-79
2021/03/05 05:52:32;;;;;;;18.95;13.13;;;4.30;77.30;5.40;101049.00;;;;5040425;27;20442;-80
2021/03/05 05:55:02;;;;;;;20.20;14.07;;;4.30;77.00;52.70;159004.00;;;;5034103;27;20418;-78
2021/03/05 05:57:31;;;;;;;21.73;13.77;;;4.30;78.00;5.50;101045.00;;;;5040449;27;20427;-80
2021/03/05 05:59:59;;;;;;;19.03;13.37;;;4.30;77.00;5.50;101043.00;;;;5037007;28;20443;-79
2021/03/05 06:02:29;;;;;;;17.00;12.90;;;4.30;77.20;5.40;101053.00;;;;5031229;27;21134;-80
2021/03/05 06:04:57;;;;;;;19.52;14.02;;;4.30;76.50;5.40;100856.00;;;;5032998;27;20490;-79
2021/03/05 06:07:26;;;;;;;20.98;13.63;;;4.30;76.00;5.50;101063.00;;;;5031991;28;20498;-79
2021/03/05 06:10:06;;;;;;;20.50;13.48;;;4.30;76.80;5.60;101062.00;;;;5043816;28;20514;-79
2021/03/05 06:12:33;;;;;;;19.90;13.03;;;4.30;75.80;5.60;101062.00;;;;5032781;28;20435;-79
2021/03/05 06:15:01;;;;;;;18.95;12.75;;;4.30;76.80;5.60;101067.00;;;;5024781;28;20427;-79
2021/03/05 06:17:47;;;;;;;19.10;13.32;;;4.30;76.40;5.60;101065.00;;;;5024594;28;20451;-80
2021/03/05 06:20:17;;;;;;;20.63;13.20;;;4.40;77.90;5.70;101065.00;;;;5017741;28;20546;-79
2021/03/05 06:22:46;;;;;;;21.80;13.13;;;4.40;77.30;5.60;101070.00;;;;5026515;28;20479;-79
2021/03/05 06:25:35;;;;;;;18.10;12.73;;;4.40;75.70;5.60;101078.00;;;;5027458;28;20452;-78
2021/03/05 06:28:15;;;;;;;21.42;13.30;;;4.40;75.50;5.60;101084.00;;;;5030548;28;20462;-79
2021/03/05 06:30:43;;;;;;;21.45;13.45;;;4.40;74.70;5.70;101082.00;;;;5030629;28;20435;-78
2021/03/05 06:33:28;;;;;;;19.33;12.80;;;4.40;75.90;5.60;101082.00;;;;5030713;28;20419;-79
2021/03/05 06:36:15;;;;;;;20.35;12.40;;;4.40;75.60;5.70;101088.00;;;;5037579;28;20454;-79
2021/03/05 06:38:45;;;;;;;21.45;13.27;;;4.40;75.20;5.80;101114.00;;;;5028397;28;20415;-78
2021/03/05 06:41:22;;;;;;;18.65;12.13;;;4.40;74.60;5.80;101106.00;;;;5029391;28;20419;-80
2021/03/05 06:43:52;;;;;;;18.45;12.60;;;4.60;74.80;5.70;101110.00;;;;5030654;28;20461;-81
2021/03/05 06:46:32;;;;;;;17.67;12.20;;;4.50;73.50;5.70;101112.00;;;;5030368;28;20464;-78
2021/03/05 06:49:01;;;;;;;19.38;13.07;;;4.50;72.80;5.80;101119.00;;;;5032266;28;20436;-80
2021/03/05 06:51:29;;;;;;;17.48;11.10;;;4.60;72.50;5.90;101121.00;;;;5042982;28;20419;-79
2021/03/05 06:54:13;;;;;;;19.25;12.95;;;4.60;72.60;5.90;101123.00;;;;5059724;27;20450;-80
2021/03/05 06:56:47;;;;;;;21.73;12.80;;;4.60;72.60;6.00;101121.00;;;;5048195;28;20435;-80
2021/03/05 06:59:16;;;;;;;19.73;12.50;;;4.60;72.70;6.00;101121.00;;;;5043162;28;20434;-79
2021/03/05 07:01:50;;;;;;;19.10;12.60;;;4.70;72.20;5.90;101131.00;;;;5047436;28;20408;-80
2021/03/05 07:04:21;;;;;;;19.35;12.68;;;4.70;71.70;6.00;101127.00;;;;5060539;27;20432;-80
2021/03/05 07:07:00;;;;;;;18.08;12.18;;;4.70;71.90;217.30;159254.00;;;;5038954;28;20435;-78
2021/03/05 07:09:32;;;;;;;18.08;12.20;;;4.70;71.80;5.80;101162.00;;;;5038273;28;20431;-79
2021/03/05 07:12:01;;;;;;;18.35;10.80;;;4.70;70.50;5.80;101153.00;;;;5035756;28;20908;-79
2021/03/05 07:14:32;;;;;;;17.20;11.52;;;4.70;71.30;5.80;101167.00;;;;5039000;28;20486;-79
2021/03/05 07:17:00;;;;;;;20.08;12.27;;;4.70;71.10;5.90;67549.00;;;;5043033;28;20435;-79
2021/03/05 07:19:32;;;;;;;18.40;11.75;;;4.70;72.00;5.80;101178.00;;;;5039558;28;20433;-81
2021/03/05 07:22:00;;;;;;;18.27;13.05;;;4.70;72.30;5.90;101183.00;;;;5037275;28;20456;-79
2021/03/05 07:24:31;;;;;;;17.27;11.85;;;4.70;72.70;5.60;101171.00;;;;5056758;27;20447;-80
2021/03/05 07:27:02;;;;;;;16.87;12.10;;;4.70;73.30;5.50;101179.00;;;;5041783;27;20454;-78
2021/03/05 07:29:33;;;;;;;15.37;12.30;;;4.50;74.30;5.60;101173.00;;;;5036264;27;20539;-79
2021/03/05 07:32:07;;;;;;;13.43;10.40;;;4.50;74.50;5.30;101198.00;;;;5032373;28;20434;-80
2021/03/05 07:34:49;;;;;;;15.48;12.13;;;4.30;74.40;5.30;101191.00;;;;5045012;27;20469;-78
2021/03/05 07:37:18;;;;;;;15.27;12.48;;;4.20;76.60;5.30;101217.00;;;;5036886;28;20469;-79
2021/03/05 07:39:50;;;;;;;17.43;13.70;;;4.10;75.60;5.30;101223.00;;;;5042007;27;20530;-79
2021/03/05 07:42:18;;;;;;;18.63;14.52;;;4.00;77.00;5.30;100900.00;;;;5037428;27;20429;-79
2021/03/05 07:44:53;;;;;;;17.27;13.45;;;4.00;77.10;5.40;101218.00;;;;5036152;27;20468;-80
2021/03/05 07:47:21;;;;;;;17.90;14.00;;;4.10;77.80;5.50;101207.00;;;;5048851;27;20435;-80
2021/03/05 07:49:48;;;;;;;17.77;14.32;;;4.10;77.00;5.60;101217.00;;;;5029862;28;20431;-79
2021/03/05 07:52:16;;;;;;;17.43;13.77;;;4.20;77.50;5.70;101221.00;;;;5027478;28;20438;-79
2021/03/05 07:54:52;;;;;;;17.23;14.38;;;4.30;77.60;5.80;101231.00;;;;5036346;27;20530;-80
2021/03/05 07:57:47;;;;;;;18.35;14.93;;;4.40;77.00;5.90;101224.00;;;;5029701;28;20431;-80
2021/03/05 08:00:49;;;;;;;18.67;14.57;;;4.40;75.50;5.70;67603.00;;;;5031458;28;20467;-80
2021/03/05 08:03:23;;;;;;;17.85;14.90;;;4.50;77.00;6.20;101243.00;;;;5028348;28;20431;-80
2021/03/05 08:05:54;;;;;;;17.85;14.40;;;4.60;75.60;6.30;101255.00;;;;5034472;27;20434;-80
2021/03/05 08:08:24;;;;;;;19.33;15.27;;;4.70;75.60;6.40;101237.00;;;;5028445;27;21285;-80
2021/03/05 08:10:59;;;;;;;16.35;13.13;;;4.80;74.50;6.30;67659.00;;;;5045220;27;20415;-81
2021/03/05 08:13:50;;;;;;;17.13;13.90;;;4.90;72.60;6.30;101237.00;;;;5026278;28;21072;-81
2021/03/05 08:16:40;;;;;;;17.98;14.63;;;4.90;72.90;6.50;101239.00;;;;5022082;28;20520;-81
2021/03/05 08:19:49;;;;;;;15.82;13.25;;;4.90;72.50;6.60;101250.00;;;;5037847;28;20434;-80
2021/03/05 08:22:20;;;;;;;18.77;14.48;;;5.00;70.40;6.80;67762.00;;;;5028440;28;20426;-80
2021/03/05 08:24:48;;;;;;;16.33;13.40;;;5.20;71.00;6.70;101254.00;;;;5029396;27;20470;-79
2021/03/05 08:27:36;;;;;;;15.65;13.45;;;5.20;67.60;7.00;67814.00;;;;5025530;27;21033;-80
2021/03/05 08:30:26;;;;;;;15.30;12.93;;;5.60;71.10;6.90;101261.00;;;;5030113;28;20463;-80
2021/03/05 08:32:59;;;;;;;16.48;13.50;;;5.40;66.10;7.10;101252.00;;;;5028047;28;20431;-80
2021/03/05 08:35:46;;;;;;;14.68;12.27;;;5.50;66.60;7.20;101247.00;;;;5021614;28;20997;-80
2021/03/05 08:38:27;;;;;;;14.63;12.45;;;5.60;66.00;7.20;101265.00;;;;5043177;27;20849;-79
2021/03/05 08:41:03;;;;;;;15.65;12.93;;;5.60;63.50;7.10;101249.00;;;;5063610;27;20442;-80
2021/03/05 08:43:36;;;;;;;15.10;12.80;;;5.60;62.80;7.10;101270.00;;;;5051140;27;20466;-80
2021/03/05 08:46:07;;;;;;;17.00;13.85;;;5.60;63.60;7.40;101272.00;;;;5047302;28;20416;-80
2021/03/05 08:48:48;;;;;;;14.70;12.70;;;5.80;64.40;217.30;159940.00;;;;5038908;27;20427;-80
2021/03/05 08:51:17;;;;;;;15.55;11.80;;;5.90;61.50;7.50;101259.00;;;;5036945;27;21012;-80
2021/03/05 08:53:47;;;;;;;17.47;12.73;;;6.00;59.80;7.80;101277.00;;;;5035864;27;20476;-80
2021/03/05 08:56:22;;;;;;;13.73;12.00;;;6.10;60.30;7.90;101281.00;;;;5026829;28;20453;-80
2021/03/05 08:59:01;;;;;;;14.45;12.40;;;6.30;59.40;7.80;101284.00;;;;5023700;28;20423;-80
2021/03/05 09:01:32;;;;;;;14.10;10.70;;;6.20;56.50;7.80;101289.00;;;;5030772;27;20440;-79
2021/03/05 09:04:13;;;;;;;12.45;10.23;;;6.20;59.20;7.50;67914.00;;;;5026837;28;20555;-80
2021/03/05 09:06:49;;;;;;;13.48;10.90;;;6.10;54.60;7.40;101299.00;;;;5032768;28;20431;-79
2021/03/05 09:09:19;;;;;;;15.90;11.90;;;6.00;55.10;7.50;101294.00;;;;5034994;27;20411;-80
2021/03/05 09:12:07;;;;;;;12.77;10.10;;;6.10;56.10;7.30;101296.00;;;;5032627;27;20910;-79
2021/03/05 09:14:35;;;;;;;11.00;9.25;;;6.00;54.50;217.30;159776.00;;;;5038674;27;20474;-79
2021/03/05 09:17:05;;;;;;;10.90;9.17;;;5.90;51.50;7.20;101279.00;;;;5034622;28;20414;-80
2021/03/05 09:19:39;;;;;;;12.85;10.20;;;5.90;52.00;7.60;101295.00;;;;5044226;28;20415;-79
2021/03/05 09:22:16;;;;;;;11.60;9.20;;;6.10;48.90;7.80;101301.00;;;;5049530;28;20438;-79
2021/03/05 09:24:58;;;;;;;12.85;10.23;;;6.30;50.10;8.00;101312.00;;;;5042094;27;20415;-80
2021/03/05 09:27:28;;;;;;;12.30;8.83;;;6.40;49.60;8.20;101311.00;;;;5036122;28;20427;-80
2021/03/05 09:29:58;;;;;;;10.25;8.50;;;6.60;47.70;7.90;101312.00;;;;5033319;27;20493;-80
2021/03/05 09:32:26;;;;;;;12.02;9.10;;;6.50;45.10;7.80;101316.00;;;;5031407;27;21464;-79
2021/03/05 09:34:57;;;;;;;14.00;9.67;;;6.40;46.90;8.00;101318.00;;;;5026899;27;20419;-80
2021/03/05 09:37:27;;;;;;;10.23;8.80;;;6.50;44.80;7.80;101320.00;;;;5032399;27;20430;-80
2021/03/05 09:39:58;;;;;;;12.27;9.30;;;6.40;43.90;8.10;101331.00;;;;5028671;27;20488;-80
2021/03/05 09:42:48;;;;;;;12.43;9.38;;;6.50;42.30;217.30;160281.00;;;;5029590;28;20891;-80
2021/03/05 09:45:42;;;;;;;11.82;9.15;;;6.90;44.60;8.10;101333.00;;;;5030314;28;21098;-80
2021/03/05 09:48:12;;;;;;;11.57;9.13;;;6.60;38.70;8.10;101331.00;;;;5028233;28;20423;-79
2021/03/05 09:50:40;;;;;;;12.63;10.10;;;6.70;38.80;217.30;160151.00;;;;5028302;27;20518;-80
2021/03/05 09:53:26;;;;;;;12.32;9.90;;;6.70;37.70;8.20;101342.00;;;;5032502;27;20421;-79
2021/03/05 09:55:58;;;;;;;10.70;8.75;;;6.70;38.60;8.30;101350.00;;;;5026819;28;20430;-82
2021/03/05 09:58:25;;;;;;;10.15;8.77;;;6.80;38.80;52.70;160119.00;;;;5032262;27;20769;-80
2021/03/05 10:00:55;;;;;;;9.52;7.95;;;6.80;36.10;7.80;101347.00;;;;5036695;28;20532;-80
2021/03/05 10:03:25;;;;;;;12.20;9.70;;;6.60;37.10;8.20;101350.00;;;;5026412;28;20419;-80
2021/03/05 10:05:53;;;;;;;13.43;9.30;;;6.80;36.50;8.20;68075.00;;;;5026557;28;20518;-81
2021/03/05 10:08:25;;;;;;;11.55;8.50;;;6.70;34.60;217.30;160250.00;;;;5030908;28;20501;-81
2021/03/05 10:11:03;;;;;;;12.38;9.20;;;6.80;35.80;217.30;160389.00;;;;5026424;28;20463;-82
2021/03/05 10:13:52;;;;;;;12.50;10.30;;;7.00;35.90;52.70;160430.00;;;;5028525;27;20431;-81
2021/03/05 10:16:27;;;;;;;11.13;9.65;;;7.10;33.50;8.70;101345.00;;;;5032332;28;20431;-79
2021/03/05 10:18:59;;;;;;;12.77;9.80;;;7.20;33.60;8.80;101341.00;;;;5024871;28;20466;-79
2021/03/05 10:21:28;;;;;;;12.40;9.70;;;7.30;30.80;9.00;101373.00;;;;5041388;27;20908;-80
2021/03/05 10:23:57;;;;;;;12.93;9.77;;;7.50;29.60;9.30;101369.00;;;;5027287;28;20420;-79
2021/03/05 10:26:27;;;;;;;11.23;9.30;;;7.70;30.80;9.30;101392.00;;;;5026563;28;20431;-79
2021/03/05 10:29:01;;;;;;;11.23;9.48;;;7.70;28.80;9.40;101378.00;;;;5041590;28;20445;-80
2021/03/05 10:31:48;;;;;;;12.53;10.50;;;7.80;27.50;9.50;101381.00;;;;5039596;28;20453;-80
2021/03/05 10:34:25;;;;;;;13.30;9.50;;;7.90;26.90;9.50;101371.00;;;;5043323;28;20401;-80
2021/03/05 10:36:55;;;;;;;10.32;9.25;;;7.90;25.70;9.30;101380.00;;;;5057845;27;20427;-80
2021/03/05 10:39:23;;;;;;;11.03;8.20;;;7.70;25.80;8.90;101376.00;;;;5047490;28;20483;-80
2021/03/05 10:41:54;;;;;;;12.55;9.85;;;7.50;27.20;8.80;101387.00;;;;5039538;28;20407;-80
2021/03/05 10:44:23;;;;;;;11.30;9.45;;;7.50;27.60;217.30;160545.00;;;;5039165;28;20495;-80
2021/03/05 10:46:55;;;;;;;12.10;8.88;;;7.60;26.30;8.80;101404.00;;;;5044038;28;20438;-81
2021/03/05 10:49:23;;;;;;;13.88;9.20;;;7.70;25.60;8.40;101391.00;;;;5032966;28;21228;-85
2021/03/05 10:51:51;;;;;;;11.43;9.75;;;7.30;26.30;217.30;160172.00;;;;5041300;28;20411;-82
2021/03/05 10:54:19;;;;;;;12.45;10.50;;;7.00;28.00;8.20;101384.00;;;;5041047;28;20458;-81
2021/03/05 10:56:49;;;;;;;12.50;9.90;;;7.00;27.70;8.70;101411.00;;;;5038961;28;20423;-82
2021/03/05 10:59:18;;;;;;;10.60;9.50;;;7.30;27.90;8.60;101402.00;;;;5054376;28;20419;-82
2021/03/05 11:01:47;;;;;;;9.73;8.52;;;7.40;27.00;8.30;101401.00;;;;5039669;28;20446;-82
2021/03/05 11:04:16;;;;;;;15.45;10.02;;;7.10;27.70;8.10;101413.00;;;;5028951;28;20421;-80
2021/03/05 11:06:45;;;;;;;10.50;9.40;;;6.90;29.60;7.90;101414.00;;;;5032927;28;20415;-80
2021/03/05 11:09:14;;;;;;;11.68;9.93;;;6.80;29.50;7.90;101410.00;;;;5049632;27;20411;-80